createdAt,value
2022-10-17T00:01:10.816Z,137.80
2022-10-17T00:03:40.719Z,139.90
2022-10-17T00:06:16.287Z,140.77
2022-10-17T00:08:46.561Z,145.02
2022-10-17T00:11:17.987Z,139.70
2022-10-17T00:13:48.989Z,139.48
2022-10-17T00:16:27.478Z,154.70
2022-10-17T00:18:54.996Z,153.30
2022-10-17T00:21:22.934Z,154.40
2022-10-17T00:23:50.246Z,152.35
2022-10-17T00:26:17.659Z,159.55
2022-10-17T00:28:48.786Z,136.90
2022-10-17T00:31:22.661Z,136.05
2022-10-17T00:33:50.482Z,138.77
2022-10-17T00:36:25.437Z,135.68
2022-10-17T00:38:59.332Z,136.73
2022-10-17T00:41:29.220Z,141.05
2022-10-17T00:44:06.404Z,148.25
2022-10-17T00:46:39.075Z,142.80
2022-10-17T00:49:11.152Z,146.23
2022-10-17T00:51:45.254Z,144.85
2022-10-17T00:54:14.752Z,185.30
2022-10-17T00:56:41.815Z,181.77
2022-10-17T00:59:12.475Z,174.20
2022-10-17T01:04:10.292Z,182.75
2022-10-17T01:06:40.032Z,181.57
2022-10-17T01:09:07.952Z,185.70
2022-10-17T01:11:45.549Z,172.38
2022-10-17T01:14:36.808Z,180.90
2022-10-17T01:17:41.430Z,175.95
2022-10-17T01:20:23.144Z,173.55
2022-10-17T01:23:06.242Z,180.48
2022-10-17T01:26:02.238Z,176.48
2022-10-17T01:28:38.135Z,176.40
2022-10-17T01:31:10.915Z,181.35
2022-10-17T01:36:39.303Z,194.38
2022-10-17T01:39:20.794Z,177.48
2022-10-17T01:42:13.593Z,188.27
2022-10-17T01:44:59.704Z,175.38
2022-10-17T01:47:32.264Z,195.15
2022-10-17T01:50:10.134Z,176.18
2022-10-17T01:52:46.497Z,178.55
2022-10-17T01:55:22.743Z,202.75
2022-10-17T01:57:56.128Z,191.93
2022-10-17T02:00:27.337Z,185.68
2022-10-17T02:03:02.827Z,189.45
2022-10-17T02:05:38.176Z,182.05
2022-10-17T02:08:06.197Z,164.73
2022-10-17T02:11:42.368Z,174.55
2022-10-17T02:14:52.158Z,193.02
2022-10-17T02:17:47.015Z,190.73
2022-10-17T02:20:16.738Z,178.70
2022-10-17T02:22:56.990Z,190.15
2022-10-17T02:25:51.205Z,193.45
2022-10-17T02:28:49.826Z,186.25
2022-10-17T02:31:40.764Z,193.10
2022-10-17T02:34:21.693Z,172.83
2022-10-17T02:36:54.908Z,185.90
2022-10-17T02:39:27.255Z,186.93
2022-10-17T02:41:59.376Z,193.18
2022-10-17T02:44:28.332Z,184.95
2022-10-17T02:47:03.678Z,189.45
2022-10-17T02:49:39.346Z,176.45
2022-10-17T02:52:14.307Z,177.65
2022-10-17T02:55:07.685Z,176.18
2022-10-17T02:57:37.850Z,166.60
2022-10-17T03:00:16.738Z,183.25
2022-10-17T03:02:49.324Z,180.15
2022-10-17T03:05:24.933Z,188.65
2022-10-17T03:07:54.870Z,194.63
2022-10-17T03:10:24.735Z,189.32
2022-10-17T03:12:56.730Z,189.70
2022-10-17T03:15:28.009Z,174.50
2022-10-17T03:17:55.287Z,186.90
2022-10-17T03:20:22.456Z,189.95
2022-10-17T03:22:49.860Z,191.32
2022-10-17T03:25:16.813Z,191.75
2022-10-17T03:27:43.579Z,187.35
2022-10-17T03:30:15.237Z,175.07
2022-10-17T03:32:42.465Z,170.20
2022-10-17T03:35:14.827Z,177.82
2022-10-17T03:37:46.595Z,188.98
2022-10-17T03:40:13.846Z,191.85
2022-10-17T03:42:40.672Z,180.77
2022-10-17T03:45:09.259Z,177.88
2022-10-17T03:47:39.104Z,176.48
2022-10-17T03:50:06.764Z,172.23
2022-10-17T03:52:36.312Z,170.50
2022-10-17T03:55:04.014Z,170.30
2022-10-17T03:57:33.026Z,178.63
2022-10-17T04:00:08.234Z,174.13
2022-10-17T04:02:41.189Z,179.68
2022-10-17T04:05:11.301Z,177.93
2022-10-17T04:07:40.326Z,160.50
2022-10-17T04:10:10.979Z,167.90
2022-10-17T04:12:40.258Z,168.27
2022-10-17T04:15:10.884Z,175.05
2022-10-17T04:17:39.197Z,170.27
2022-10-17T04:20:07.790Z,176.90
2022-10-17T04:22:34.969Z,176.10
2022-10-17T04:25:02.372Z,287.63
2022-10-17T04:27:43.877Z,171.65
2022-10-17T04:30:11.212Z,160.73
2022-10-17T04:32:39.290Z,172.65
2022-10-17T04:35:16.944Z,183.25
2022-10-17T04:37:48.681Z,184.68
2022-10-17T04:40:18.458Z,186.82
2022-10-17T04:42:48.157Z,178.07
2022-10-17T04:45:19.696Z,168.82
2022-10-17T04:47:49.412Z,187.18
2022-10-17T04:50:16.302Z,183.95
2022-10-17T04:53:02.672Z,178.85
2022-10-17T04:55:36.615Z,165.57
2022-10-17T04:58:03.519Z,186.77
2022-10-17T05:00:33.793Z,178.55
2022-10-17T05:03:05.637Z,174.07
2022-10-17T05:05:33.079Z,170.02
2022-10-17T05:08:01.745Z,174.82
2022-10-17T05:10:40.270Z,171.60
2022-10-17T05:13:10.029Z,181.80
2022-10-17T05:15:37.745Z,184.43
2022-10-17T05:18:06.216Z,179.65
2022-10-17T05:20:33.774Z,185.77
2022-10-17T05:23:06.381Z,178.25
2022-10-17T05:25:37.804Z,189.02
2022-10-17T05:28:09.402Z,169.20
2022-10-17T05:30:41.464Z,289.27
2022-10-17T05:33:09.734Z,177.90
2022-10-17T05:35:36.793Z,189.48
2022-10-17T05:38:03.807Z,179.20
2022-10-17T05:40:35.460Z,589.28
2022-10-17T05:43:04.730Z,564.13
2022-10-17T05:45:35.540Z,380.80
2022-10-17T05:48:02.504Z,507.35
2022-10-17T05:50:32.419Z,178.20
2022-10-17T05:53:12.496Z,192.10
2022-10-17T05:55:44.549Z,185.13
2022-10-17T05:58:21.749Z,181.77
2022-10-17T06:01:03.029Z,198.23
2022-10-17T06:03:32.945Z,167.00
2022-10-17T06:06:08.920Z,175.98
2022-10-17T06:08:40.568Z,171.88
2022-10-17T06:11:10.526Z,178.85
2022-10-17T06:13:41.013Z,178.50
2022-10-17T06:16:14.003Z,194.13
2022-10-17T06:18:40.780Z,175.82
2022-10-17T06:21:10.940Z,185.27
2022-10-17T06:23:44.466Z,178.48
2022-10-17T06:26:24.682Z,186.48
2022-10-17T06:28:53.822Z,193.05
2022-10-17T06:31:23.540Z,190.40
2022-10-17T06:33:50.852Z,191.43
2022-10-17T06:36:20.777Z,182.00
2022-10-17T06:38:49.025Z,188.48
2022-10-17T06:41:34.816Z,181.18
2022-10-17T06:44:11.381Z,174.82
2022-10-17T06:47:19.982Z,185.10
2022-10-17T06:49:47.744Z,175.98
2022-10-17T06:52:35.449Z,189.70
2022-10-17T06:55:36.446Z,177.43
2022-10-17T06:58:26.534Z,186.65
2022-10-17T07:01:11.009Z,172.23
2022-10-17T07:03:41.290Z,176.80
2022-10-17T07:06:10.946Z,183.32
2022-10-17T07:08:44.864Z,189.30
2022-10-17T07:11:20.103Z,175.00
2022-10-17T07:13:49.718Z,190.13
2022-10-17T07:16:17.185Z,196.95
2022-10-17T07:18:52.326Z,189.98
2022-10-17T07:23:46.378Z,193.52
2022-10-17T07:26:15.783Z,196.32
2022-10-17T07:28:45.066Z,187.10
2022-10-17T07:31:23.439Z,192.98
2022-10-17T07:33:51.313Z,182.45
2022-10-17T07:36:20.641Z,194.48
2022-10-17T07:38:47.505Z,175.27
2022-10-17T07:41:21.728Z,186.27
2022-10-17T07:43:49.976Z,184.95
2022-10-17T07:46:22.963Z,184.95
2022-10-17T07:48:52.441Z,182.18
2022-10-17T07:51:22.134Z,182.23
2022-10-17T07:53:51.326Z,191.98
2022-10-17T07:56:24.540Z,186.05
2022-10-17T07:58:55.010Z,175.35
2022-10-17T08:01:25.967Z,179.75
2022-10-17T08:03:52.730Z,188.02
2022-10-17T08:06:22.248Z,176.48
2022-10-17T08:08:51.506Z,178.93
2022-10-17T08:11:18.383Z,174.95
2022-10-17T08:13:45.182Z,179.80
2022-10-17T08:16:15.683Z,174.68
2022-10-17T08:18:45.875Z,171.73
2022-10-17T08:23:48.763Z,184.88
2022-10-17T08:26:20.145Z,179.93
2022-10-17T08:28:47.656Z,156.40
2022-10-17T08:31:20.966Z,167.95
2022-10-17T08:33:50.228Z,175.57
2022-10-17T08:36:21.996Z,171.15
2022-10-17T08:38:52.621Z,172.50
2022-10-17T08:41:58.150Z,181.02
2022-10-17T08:44:55.535Z,174.35
2022-10-17T08:47:29.369Z,179.00
2022-10-17T08:50:07.788Z,161.55
2022-10-17T08:53:03.006Z,154.00
2022-10-17T08:55:37.025Z,159.00
2022-10-17T08:58:23.671Z,375.13
2022-10-17T09:01:27.019Z,218.40
2022-10-17T09:04:14.936Z,163.95
2022-10-17T09:07:04.832Z,165.35
2022-10-17T09:10:01.723Z,165.25
2022-10-17T09:12:46.203Z,166.43
2022-10-17T09:15:32.056Z,155.93
2022-10-17T09:18:07.749Z,156.27
2022-10-17T09:20:42.748Z,162.63
2022-10-17T09:23:24.026Z,154.27
2022-10-17T09:25:58.194Z,167.98
2022-10-17T09:28:33.506Z,167.35
2022-10-17T09:31:23.297Z,162.07
2022-10-17T09:33:57.043Z,164.77
2022-10-17T09:36:29.542Z,161.65
2022-10-17T09:39:01.149Z,161.45
2022-10-17T09:41:45.828Z,160.18
2022-10-17T09:44:15.448Z,169.40
2022-10-17T09:47:18.392Z,177.23
2022-10-17T09:49:47.351Z,178.80
2022-10-17T09:52:21.409Z,162.27
2022-10-17T09:55:06.715Z,162.32
2022-10-17T09:57:55.361Z,159.30
2022-10-17T10:00:28.019Z,143.90
2022-10-17T10:03:18.213Z,151.90
2022-10-17T10:06:06.729Z,162.80
2022-10-17T10:09:05.144Z,144.05
2022-10-17T10:11:54.492Z,149.80
2022-10-17T10:14:38.030Z,160.80
2022-10-17T10:17:25.314Z,146.02
2022-10-17T10:19:56.614Z,161.05
2022-10-17T10:22:24.051Z,141.40
2022-10-17T10:25:31.544Z,154.65
2022-10-17T10:28:00.719Z,161.43
2022-10-17T10:30:36.225Z,148.38
2022-10-17T10:33:06.152Z,153.95
2022-10-17T10:35:37.475Z,153.65
2022-10-17T10:38:16.083Z,151.38
2022-10-17T10:41:14.151Z,161.10
2022-10-17T10:43:43.998Z,155.55
2022-10-17T10:46:30.620Z,154.30
2022-10-17T10:49:03.205Z,165.02
2022-10-17T10:51:39.977Z,143.52
2022-10-17T10:54:25.174Z,156.05
2022-10-17T10:57:01.687Z,159.90
2022-10-17T10:59:51.068Z,158.70
2022-10-17T11:02:38.757Z,167.32
2022-10-17T11:05:35.507Z,151.27
2022-10-17T11:08:10.801Z,147.57
2022-10-17T11:11:02.135Z,148.07
2022-10-17T11:13:38.039Z,148.32
2022-10-17T11:16:48.113Z,145.38
2022-10-17T11:19:41.460Z,159.40
2022-10-17T11:22:19.783Z,149.00
2022-10-17T11:25:25.833Z,146.88
2022-10-17T11:27:53.053Z,207.50
2022-10-17T11:30:23.447Z,140.05
2022-10-17T11:32:56.819Z,143.10
2022-10-17T11:35:28.294Z,143.45
2022-10-17T11:38:30.703Z,146.77
2022-10-17T11:41:00.282Z,144.15
2022-10-17T11:43:38.749Z,140.05
2022-10-17T11:46:16.710Z,134.98
2022-10-17T11:49:06.421Z,143.93
2022-10-17T11:52:01.894Z,133.52
2022-10-17T11:54:39.519Z,136.10
2022-10-17T11:57:54.125Z,135.90
2022-10-17T12:00:48.973Z,119.70
2022-10-17T12:03:38.130Z,150.30
2022-10-17T12:06:30.639Z,141.10
2022-10-17T12:09:29.675Z,149.45
2022-10-17T12:12:02.409Z,159.27
2022-10-17T12:14:39.998Z,150.68
2022-10-17T12:17:29.581Z,144.82
2022-10-17T12:20:25.777Z,162.23
2022-10-17T12:23:12.777Z,151.65
2022-10-17T12:26:03.390Z,146.35
2022-10-17T12:28:40.930Z,146.18
2022-10-17T12:31:17.584Z,143.35
2022-10-17T12:33:58.072Z,161.27
2022-10-17T12:36:28.209Z,147.88
2022-10-17T12:39:04.124Z,159.50
2022-10-17T12:41:40.100Z,147.55
2022-10-17T12:44:13.067Z,149.52
2022-10-17T12:46:49.819Z,148.57
2022-10-17T12:49:41.651Z,158.48
2022-10-17T12:52:58.286Z,144.73
2022-10-17T12:55:25.646Z,165.75
2022-10-17T12:58:01.228Z,157.38
2022-10-17T13:00:37.568Z,155.60
2022-10-17T13:03:13.025Z,150.50
2022-10-17T13:05:43.732Z,152.02
2022-10-17T13:08:37.865Z,140.37
2022-10-17T13:11:09.126Z,152.68
2022-10-17T13:13:43.404Z,149.63
2022-10-17T13:16:34.910Z,156.95
2022-10-17T13:19:04.660Z,147.05
2022-10-17T13:21:34.543Z,157.23
2022-10-17T13:24:01.462Z,150.65
2022-10-17T13:26:29.152Z,161.70
2022-10-17T13:29:14.556Z,159.32
2022-10-17T13:31:43.377Z,159.20
2022-10-17T13:34:22.058Z,154.07
2022-10-17T13:36:53.398Z,160.77
2022-10-17T13:39:38.178Z,169.48
2022-10-17T13:42:28.476Z,157.48
2022-10-17T13:44:56.721Z,168.82
2022-10-17T13:47:27.611Z,172.50
2022-10-17T13:49:56.108Z,163.18
2022-10-17T13:52:29.552Z,165.13
2022-10-17T13:55:16.803Z,170.93
2022-10-17T13:57:44.681Z,164.07
2022-10-17T14:00:23.077Z,144.55
2022-10-17T14:02:49.999Z,158.00
2022-10-17T14:05:25.075Z,155.13
2022-10-17T14:08:11.383Z,164.30
2022-10-17T14:10:41.782Z,147.73
2022-10-17T14:13:26.193Z,150.13
2022-10-17T14:15:55.569Z,160.57
2022-10-17T14:18:36.713Z,164.27
2022-10-17T14:21:36.910Z,155.55
2022-10-17T14:24:11.683Z,157.48
2022-10-17T14:26:50.829Z,154.85
2022-10-17T14:29:28.794Z,158.15
2022-10-17T14:32:04.846Z,164.27
2022-10-17T14:34:38.956Z,152.65
2022-10-17T14:37:24.644Z,155.52
2022-10-17T14:39:55.275Z,175.43
2022-10-17T14:42:23.642Z,163.55
2022-10-17T14:44:51.895Z,178.40
2022-10-17T14:47:42.224Z,172.13
2022-10-17T14:52:43.220Z,163.20
2022-10-17T14:55:30.730Z,156.13
2022-10-17T14:57:57.967Z,176.88
2022-10-17T15:00:25.354Z,161.93
2022-10-17T15:02:55.734Z,166.95
2022-10-17T15:05:24.012Z,171.95
2022-10-17T15:07:51.405Z,165.85
2022-10-17T15:10:24.559Z,177.00
2022-10-17T15:12:57.492Z,173.40
2022-10-17T15:15:30.977Z,165.27
2022-10-17T15:18:00.565Z,156.13
2022-10-17T15:20:30.343Z,173.93
2022-10-17T15:23:01.095Z,168.95
2022-10-17T15:25:31.538Z,155.95
2022-10-17T15:27:58.888Z,161.82
2022-10-17T15:30:30.275Z,172.65
2022-10-17T15:32:59.517Z,166.45
2022-10-17T15:35:31.062Z,164.43
2022-10-17T15:37:57.886Z,159.32
2022-10-17T15:40:29.592Z,162.10
2022-10-17T15:42:57.513Z,173.00
2022-10-17T15:45:24.560Z,167.38
2022-10-17T15:47:59.778Z,169.27
2022-10-17T15:50:30.511Z,166.70
2022-10-17T15:52:57.544Z,161.45
2022-10-17T15:55:27.081Z,170.15
2022-10-17T15:57:53.894Z,166.85
2022-10-17T16:00:26.296Z,144.10
2022-10-17T16:02:53.272Z,166.55
2022-10-17T16:05:29.187Z,166.18
2022-10-17T16:08:01.238Z,155.70
2022-10-17T16:10:28.390Z,159.88
2022-10-17T16:12:57.335Z,160.63
2022-10-17T16:15:27.896Z,159.15
2022-10-17T16:18:02.823Z,237.00
2022-10-17T16:20:33.019Z,154.43
2022-10-17T16:23:03.396Z,170.23
2022-10-17T16:25:31.865Z,169.75
2022-10-17T16:28:00.118Z,167.02
2022-10-17T16:30:31.925Z,375.30
2022-10-17T16:32:58.891Z,291.65
2022-10-17T16:35:33.226Z,176.82
2022-10-17T16:38:04.495Z,163.75
2022-10-17T16:40:32.920Z,579.22
2022-10-17T16:43:04.772Z,621.70
2022-10-17T16:45:32.158Z,419.35
2022-10-17T16:47:59.328Z,433.58
2022-10-17T16:50:26.223Z,170.63
2022-10-17T16:52:53.194Z,169.75
2022-10-17T16:55:24.978Z,170.98
2022-10-17T16:57:51.989Z,172.95
2022-10-17T17:00:19.150Z,163.85
2022-10-17T17:02:49.239Z,174.82
2022-10-17T17:05:20.574Z,171.50
2022-10-17T17:07:48.964Z,170.00
2022-10-17T17:10:18.272Z,173.60
2022-10-17T17:12:47.487Z,170.90
2022-10-17T17:15:14.307Z,164.80
2022-10-17T17:17:53.609Z,162.18
2022-10-17T17:20:24.746Z,179.77
2022-10-17T17:22:54.721Z,158.65
2022-10-17T17:25:22.682Z,168.20
2022-10-17T17:27:51.999Z,175.93
2022-10-17T17:30:23.122Z,153.32
2022-10-17T17:32:54.924Z,164.33
2022-10-17T17:35:24.480Z,176.68
2022-10-17T17:38:25.832Z,175.82
2022-10-17T17:40:52.789Z,174.32
2022-10-17T17:43:19.740Z,157.52
2022-10-17T17:45:47.508Z,171.13
2022-10-17T17:48:17.029Z,159.93
2022-10-17T17:50:49.799Z,166.55
2022-10-17T17:53:19.398Z,168.68
2022-10-17T17:55:46.403Z,169.30
2022-10-17T17:58:13.227Z,166.95
2022-10-17T18:00:40.949Z,162.52
2022-10-17T18:03:10.603Z,164.85
2022-10-17T18:05:40.112Z,167.48
2022-10-17T18:08:06.987Z,164.52
2022-10-17T18:10:35.961Z,161.80
2022-10-17T18:13:02.888Z,168.40
2022-10-17T18:15:29.983Z,156.82
2022-10-17T18:17:58.868Z,165.85
2022-10-17T18:20:27.926Z,180.40
2022-10-17T18:23:00.503Z,171.88
2022-10-17T18:25:30.487Z,159.70
2022-10-17T18:27:59.518Z,167.93
2022-10-17T18:30:34.458Z,174.85
2022-10-17T18:33:01.434Z,171.07
2022-10-17T18:35:30.581Z,171.30
2022-10-17T18:37:59.880Z,177.68
2022-10-17T18:40:28.967Z,169.90
2022-10-17T18:42:55.880Z,183.98
2022-10-17T18:45:22.915Z,168.55
2022-10-17T18:47:52.533Z,171.45
2022-10-17T18:50:24.194Z,186.70
2022-10-17T18:52:55.660Z,181.50
2022-10-17T18:55:22.469Z,183.07
2022-10-17T18:57:53.017Z,195.80
2022-10-17T19:00:19.970Z,170.63
2022-10-17T19:02:50.653Z,188.27
2022-10-17T19:05:17.826Z,188.05
2022-10-17T19:07:44.668Z,184.20
2022-10-17T19:10:13.786Z,186.57
2022-10-17T19:12:42.970Z,179.98
2022-10-17T19:15:12.075Z,177.88
2022-10-17T19:17:41.183Z,188.07
2022-10-17T19:20:08.983Z,181.40
2022-10-17T19:22:36.095Z,179.77
2022-10-17T19:25:05.268Z,178.88
2022-10-17T19:27:32.348Z,179.27
2022-10-17T19:30:08.739Z,165.88
2022-10-17T19:32:38.683Z,173.18
2022-10-17T19:35:06.434Z,216.25
2022-10-17T19:37:34.252Z,167.25
2022-10-17T19:40:01.290Z,175.88
2022-10-17T19:42:29.895Z,181.25
2022-10-17T19:44:57.022Z,182.02
2022-10-17T19:47:24.321Z,194.45
2022-10-17T19:49:53.661Z,182.30
2022-10-17T19:52:25.185Z,170.33
2022-10-17T19:54:52.055Z,183.75
2022-10-17T19:57:19.015Z,185.07
2022-10-17T19:59:49.351Z,189.95
2022-10-17T20:02:18.100Z,177.35
2022-10-17T20:04:54.581Z,177.57
2022-10-17T20:07:34.190Z,173.90
2022-10-17T20:10:02.108Z,166.10
2022-10-17T20:12:29.607Z,168.55
2022-10-17T20:14:57.106Z,178.13
2022-10-17T20:17:26.531Z,177.95
2022-10-17T20:19:53.353Z,179.07
2022-10-17T20:22:22.459Z,182.30
2022-10-17T20:24:49.959Z,170.48
2022-10-17T20:27:19.125Z,177.13
2022-10-17T20:29:48.575Z,178.15
2022-10-17T20:32:20.310Z,185.82
2022-10-17T20:34:47.123Z,182.45
2022-10-17T20:37:14.372Z,182.55
2022-10-17T20:39:42.715Z,177.27
2022-10-17T20:42:09.500Z,174.75
2022-10-17T20:44:41.388Z,173.82
2022-10-17T20:47:16.275Z,162.52
2022-10-17T20:49:47.911Z,188.45
2022-10-17T20:52:15.113Z,187.95
2022-10-17T20:54:42.559Z,186.32
2022-10-17T20:57:11.813Z,182.05
2022-10-17T20:59:39.023Z,177.82
2022-10-17T21:02:10.734Z,173.82
2022-10-17T21:04:46.707Z,188.40
2022-10-17T21:07:14.416Z,193.82
2022-10-17T21:09:46.533Z,179.43
2022-10-17T21:12:21.619Z,179.38
2022-10-17T21:14:58.225Z,177.52
2022-10-17T21:17:25.239Z,180.90
2022-10-17T21:19:54.360Z,171.20
2022-10-17T21:22:21.160Z,175.60
2022-10-17T21:24:47.986Z,175.85
2022-10-17T21:27:16.981Z,176.38
2022-10-17T21:29:44.019Z,160.20
2022-10-17T21:32:25.146Z,171.18
2022-10-17T21:35:01.539Z,167.35
2022-10-17T21:37:30.851Z,176.15
2022-10-17T21:39:57.994Z,176.77
2022-10-17T21:42:24.813Z,174.43
2022-10-17T21:44:51.493Z,179.70
2022-10-17T21:47:18.432Z,183.93
2022-10-17T21:49:49.386Z,192.90
2022-10-17T21:52:16.308Z,188.07
2022-10-17T21:54:43.112Z,187.05
2022-10-17T21:57:09.909Z,185.13
2022-10-17T21:59:36.766Z,161.50
2022-10-17T22:02:04.084Z,152.93
2022-10-17T22:04:30.938Z,163.90
2022-10-17T22:06:58.995Z,179.85
2022-10-17T22:09:26.585Z,183.75
2022-10-17T22:11:55.795Z,177.63
2022-10-17T22:14:26.442Z,175.43
2022-10-17T22:16:53.217Z,175.52
2022-10-17T22:19:24.361Z,166.55
2022-10-17T22:21:51.725Z,177.18
2022-10-17T22:26:48.587Z,180.68
2022-10-17T22:29:15.834Z,180.40
2022-10-17T22:31:42.750Z,174.57
2022-10-17T22:34:13.603Z,159.88
2022-10-17T22:36:43.452Z,225.52
2022-10-17T22:39:15.010Z,173.77
2022-10-17T22:41:41.817Z,177.52
2022-10-17T22:44:09.001Z,164.70
2022-10-17T22:46:38.693Z,160.82
2022-10-17T22:49:05.499Z,169.35
2022-10-17T22:51:34.470Z,165.90
2022-10-17T22:54:04.238Z,176.82
2022-10-17T22:56:31.151Z,152.32
2022-10-17T22:59:00.039Z,167.88
2022-10-17T23:01:26.925Z,180.43
2022-10-17T23:03:54.207Z,176.30
2022-10-17T23:06:23.855Z,170.07
2022-10-17T23:08:51.023Z,177.43
2022-10-17T23:11:18.220Z,172.50
2022-10-17T23:13:47.520Z,172.50
2022-10-17T23:16:14.278Z,176.40
2022-10-17T23:18:41.355Z,173.90
2022-10-17T23:21:09.282Z,169.30
2022-10-17T23:23:37.119Z,169.13
2022-10-17T23:26:13.170Z,175.40
2022-10-17T23:28:41.102Z,159.48
2022-10-17T23:31:11.118Z,165.82
2022-10-17T23:33:41.329Z,163.35
2022-10-17T23:36:10.783Z,169.30
2022-10-17T23:38:39.244Z,160.65
2022-10-17T23:41:09.543Z,175.18
2022-10-17T23:43:37.204Z,163.63
2022-10-17T23:46:06.847Z,173.05
2022-10-17T23:48:33.992Z,169.50
2022-10-17T23:51:01.291Z,164.98
2022-10-17T23:53:33.008Z,173.52
2022-10-17T23:55:59.815Z,179.95
2022-10-17T23:58:26.883Z,172.27
